createdAt,value
2019-02-26T00:00:44.911Z,101412.36
2019-02-26T00:03:09.426Z,101411.77
2019-02-26T00:05:37.217Z,101412.33
2019-02-26T00:08:10.714Z,101411.55
2019-02-26T00:10:39.173Z,101407.00
2019-02-26T00:13:09.808Z,101399.05
2019-02-26T00:15:48.372Z,101399.35
2019-02-26T00:18:16.789Z,101394.48
2019-02-26T00:20:48.747Z,101392.98
2019-02-26T00:23:21.471Z,101393.34
2019-02-26T00:25:49.135Z,101396.11
2019-02-26T00:28:17.667Z,101393.48
2019-02-26T00:30:46.574Z,101387.74
2019-02-26T00:33:14.355Z,101396.25
2019-02-26T00:35:43.784Z,101398.45
2019-02-26T00:38:13.414Z,101403.81
2019-02-26T00:40:43.214Z,101410.24
2019-02-26T00:43:11.058Z,101407.86
2019-02-26T00:45:39.211Z,101418.74
2019-02-26T00:48:07.045Z,101429.83
2019-02-26T00:50:37.304Z,101424.69
2019-02-26T00:53:04.694Z,101418.64
2019-02-26T00:55:34.811Z,101415.73
2019-02-26T00:58:03.373Z,101421.17
2019-02-26T01:00:37.515Z,101418.05
2019-02-26T01:03:09.314Z,101415.08
2019-02-26T01:05:39.180Z,101410.00
2019-02-26T01:08:10.609Z,101413.19
2019-02-26T01:10:39.108Z,101414.96
2019-02-26T01:13:07.283Z,101414.25
2019-02-26T01:15:35.524Z,101410.44
2019-02-26T01:18:05.481Z,101407.89
2019-02-26T01:20:33.106Z,101411.39
2019-02-26T01:23:00.914Z,101412.97
2019-02-26T01:25:28.705Z,101409.95
2019-02-26T01:27:58.552Z,101407.56
2019-02-26T01:30:27.180Z,101402.81
2019-02-26T01:32:57.545Z,101403.67
2019-02-26T01:35:26.183Z,101403.51
2019-02-26T01:37:55.867Z,101404.86
2019-02-26T01:40:25.833Z,101401.23
2019-02-26T01:42:55.626Z,101400.48
2019-02-26T01:45:26.644Z,101399.94
2019-02-26T01:48:16.151Z,101394.81
2019-02-26T01:51:21.877Z,101394.75
2019-02-26T01:53:51.937Z,101389.30
2019-02-26T01:56:21.099Z,101392.55
2019-02-26T01:58:56.340Z,101393.89
2019-02-26T02:01:19.211Z,101394.66
2019-02-26T02:03:48.813Z,101395.12
2019-02-26T02:06:18.223Z,101393.73
2019-02-26T02:08:48.087Z,101397.09
2019-02-26T02:11:15.986Z,101397.19
2019-02-26T02:13:43.894Z,101392.28
2019-02-26T02:16:11.866Z,101396.33
2019-02-26T02:18:43.766Z,101389.19
2019-02-26T02:21:09.423Z,101383.48
2019-02-26T02:23:37.274Z,101383.30
2019-02-26T02:26:07.103Z,101377.04
2019-02-26T02:28:35.620Z,101371.05
2019-02-26T02:31:04.071Z,101361.27
2019-02-26T02:33:33.079Z,101355.22
2019-02-26T02:36:01.484Z,101357.71
2019-02-26T02:38:29.276Z,101356.94
2019-02-26T02:40:57.069Z,101360.28
2019-02-26T02:43:24.855Z,101353.52
2019-02-26T02:45:55.139Z,101351.48
2019-02-26T02:48:22.380Z,101348.83
2019-02-26T02:50:50.136Z,101352.61
2019-02-26T02:53:20.998Z,101349.87
2019-02-26T02:55:49.461Z,101349.59
2019-02-26T02:58:18.815Z,101346.23
2019-02-26T03:00:49.372Z,101338.96
2019-02-26T03:03:16.856Z,101336.48
2019-02-26T03:05:45.868Z,101341.17
2019-02-26T03:08:33.451Z,101338.78
2019-02-26T03:11:01.275Z,101335.48
2019-02-26T03:13:29.042Z,101335.64
2019-02-26T03:15:59.243Z,101336.79
2019-02-26T03:18:26.587Z,101328.86
2019-02-26T03:20:56.724Z,101168.20
2019-02-26T03:23:27.082Z,101329.13
2019-02-26T03:26:15.255Z,101333.01
2019-02-26T03:28:48.171Z,101333.88
2019-02-26T03:31:17.235Z,101336.12
2019-02-26T03:33:44.999Z,101333.48
2019-02-26T03:36:14.110Z,101330.93
2019-02-26T03:38:44.131Z,101326.02
2019-02-26T03:41:12.222Z,101321.82
2019-02-26T03:43:41.806Z,101322.75
2019-02-26T03:46:09.739Z,101326.47
2019-02-26T03:48:37.520Z,101320.32
2019-02-26T03:51:05.421Z,101317.06
2019-02-26T03:53:34.255Z,101321.87
2019-02-26T03:56:04.630Z,101324.90
2019-02-26T03:58:32.923Z,101322.03
2019-02-26T04:01:04.471Z,101315.45
2019-02-26T04:03:32.081Z,101322.94
2019-02-26T04:06:00.930Z,101325.69
2019-02-26T04:08:30.357Z,101320.89
2019-02-26T04:11:01.848Z,101319.70
2019-02-26T04:13:28.407Z,101314.80
2019-02-26T04:15:57.263Z,101314.25
2019-02-26T04:18:25.917Z,101318.72
2019-02-26T04:20:53.966Z,101310.47
2019-02-26T04:23:22.045Z,101309.45
2019-02-26T04:26:35.074Z,101310.09
2019-02-26T04:29:37.939Z,101316.83
2019-02-26T04:32:46.223Z,101312.91
2019-02-26T04:36:06.783Z,101299.78
2019-02-26T04:39:26.047Z,101296.31
2019-02-26T04:42:59.532Z,101292.73
2019-02-26T04:46:28.871Z,101299.52
2019-02-26T04:48:57.444Z,101303.47
2019-02-26T04:51:25.182Z,101306.53
2019-02-26T04:53:54.185Z,101309.35
2019-02-26T04:56:22.711Z,101305.31
2019-02-26T04:58:50.623Z,101310.19
2019-02-26T05:01:19.211Z,101308.35
2019-02-26T05:03:46.980Z,101306.79
2019-02-26T05:06:14.770Z,101302.16
2019-02-26T05:08:42.962Z,101309.13
2019-02-26T05:11:14.720Z,101298.41
2019-02-26T05:13:40.452Z,101294.43
2019-02-26T05:16:08.246Z,101292.05
2019-02-26T05:18:36.081Z,101291.91
2019-02-26T05:21:05.211Z,101296.26
2019-02-26T05:23:33.717Z,101305.70
2019-02-26T05:26:05.239Z,101306.72
2019-02-26T05:28:35.631Z,101304.44
2019-02-26T05:31:03.458Z,101308.43
2019-02-26T05:33:32.835Z,101309.61
2019-02-26T05:36:00.751Z,101312.22
2019-02-26T05:38:30.579Z,101314.64
2019-02-26T05:40:58.283Z,101319.77
2019-02-26T05:43:28.161Z,101314.95
2019-02-26T05:45:59.947Z,101316.58
2019-02-26T05:48:25.950Z,101311.05
2019-02-26T05:50:54.071Z,101314.08
2019-02-26T05:53:21.860Z,101307.70
2019-02-26T05:55:51.191Z,101307.69
2019-02-26T05:58:21.511Z,101309.62
2019-02-26T06:00:49.036Z,101316.25
2019-02-26T06:03:18.610Z,101323.19
2019-02-26T06:05:48.958Z,101316.56
2019-02-26T06:08:16.300Z,101318.49
2019-02-26T06:10:44.110Z,101323.25
2019-02-26T06:13:13.494Z,101322.39
2019-02-26T06:15:41.600Z,101327.59
2019-02-26T06:18:09.396Z,101332.88
2019-02-26T06:20:37.295Z,101336.30
2019-02-26T06:23:05.068Z,101332.12
2019-02-26T06:25:32.902Z,101329.48
2019-02-26T06:28:04.811Z,101328.99
2019-02-26T06:30:49.974Z,101331.21
2019-02-26T06:33:17.790Z,101326.85
2019-02-26T06:35:45.596Z,101331.73
2019-02-26T06:38:13.402Z,101330.59
2019-02-26T06:40:42.296Z,101328.72
2019-02-26T06:43:11.005Z,101326.80
2019-02-26T06:45:41.125Z,101330.80
2019-02-26T06:48:12.534Z,101329.94
2019-02-26T06:50:39.426Z,101327.36
2019-02-26T06:53:09.151Z,101327.20
2019-02-26T06:55:37.935Z,101326.06
2019-02-26T06:58:26.506Z,101323.14
2019-02-26T07:00:56.391Z,101331.19
2019-02-26T07:03:24.917Z,101332.67
2019-02-26T07:05:53.107Z,101338.42
2019-02-26T07:08:21.991Z,101337.37
2019-02-26T07:10:50.620Z,101330.15
2019-02-26T07:13:18.422Z,101340.96
2019-02-26T07:15:46.246Z,101346.23
2019-02-26T07:18:17.061Z,101343.94
2019-02-26T07:20:46.779Z,101341.38
2019-02-26T07:23:15.441Z,101337.75
2019-02-26T07:25:44.102Z,101339.02
2019-02-26T07:28:12.032Z,101331.45
2019-02-26T07:30:42.291Z,101326.30
2019-02-26T07:33:10.383Z,101344.70
2019-02-26T07:35:39.780Z,101337.75
2019-02-26T07:38:07.643Z,101328.31
2019-02-26T07:40:37.810Z,101313.75
2019-02-26T07:43:09.040Z,101302.72
2019-02-26T07:45:34.874Z,101303.73
2019-02-26T07:48:02.699Z,101295.78
2019-02-26T07:50:34.766Z,101296.08
2019-02-26T07:53:00.240Z,101283.81
2019-02-26T07:55:30.211Z,101283.28
2019-02-26T07:57:57.737Z,101274.91
2019-02-26T08:00:25.549Z,101275.25
2019-02-26T08:02:54.789Z,101275.73
2019-02-26T08:05:25.699Z,101275.99
2019-02-26T08:07:54.520Z,101269.00
2019-02-26T08:10:22.493Z,101274.75
2019-02-26T08:12:50.277Z,101274.39
2019-02-26T08:15:18.070Z,101270.39
2019-02-26T08:17:50.217Z,101265.53
2019-02-26T08:20:15.783Z,101259.44
2019-02-26T08:22:43.612Z,101255.70
2019-02-26T08:25:12.545Z,101257.03
2019-02-26T08:27:40.351Z,101252.55
2019-02-26T08:30:14.501Z,101245.62
2019-02-26T08:32:42.166Z,101243.03
2019-02-26T08:35:10.769Z,101245.00
2019-02-26T08:37:38.549Z,101240.70
2019-02-26T08:40:09.692Z,101245.36
2019-02-26T08:42:37.520Z,101239.92
2019-02-26T08:45:08.885Z,101235.91
2019-02-26T08:47:36.751Z,101216.39
2019-02-26T08:50:07.332Z,101216.42
2019-02-26T08:52:34.605Z,101228.52
2019-02-26T08:55:02.419Z,101234.68
2019-02-26T08:57:30.249Z,101246.50
2019-02-26T08:59:58.029Z,101241.61
2019-02-26T09:02:25.819Z,101247.92
2019-02-26T09:04:53.605Z,101248.52
2019-02-26T09:07:23.593Z,101239.66
2019-02-26T09:09:54.335Z,101248.11
2019-02-26T09:12:22.338Z,101247.52
2019-02-26T09:14:50.484Z,101252.45
2019-02-26T09:17:20.945Z,101251.90
2019-02-26T09:19:50.275Z,101251.34
2019-02-26T09:22:19.374Z,101249.89
2019-02-26T09:24:49.400Z,101256.30
2019-02-26T09:27:17.144Z,101250.70
2019-02-26T09:29:50.906Z,101252.17
2019-02-26T09:32:16.523Z,101250.50
2019-02-26T09:34:45.150Z,101248.16
2019-02-26T09:37:12.986Z,101242.11
2019-02-26T09:39:40.736Z,101238.06
2019-02-26T09:42:09.226Z,101236.80
2019-02-26T09:44:37.060Z,101238.17
2019-02-26T09:47:07.409Z,101243.30
2019-02-26T09:49:35.740Z,101237.27
2019-02-26T09:52:06.515Z,101234.39
2019-02-26T09:54:37.709Z,101230.45
2019-02-26T09:57:03.883Z,101233.37
2019-02-26T09:59:33.533Z,101221.78
2019-02-26T10:02:03.577Z,101219.18
2019-02-26T10:04:31.917Z,101215.80
2019-02-26T10:07:01.687Z,101222.69
2019-02-26T10:09:29.408Z,101224.39
2019-02-26T10:11:57.345Z,101229.67
2019-02-26T10:14:26.971Z,101236.03
2019-02-26T10:16:56.895Z,101232.17
2019-02-26T10:19:24.593Z,101230.52
2019-02-26T10:22:28.832Z,101230.47
2019-02-26T10:24:57.615Z,101231.28
2019-02-26T10:27:25.397Z,101231.25
2019-02-26T10:29:53.154Z,101225.52
2019-02-26T10:32:20.983Z,101223.13
2019-02-26T10:34:48.742Z,101217.91
2019-02-26T10:37:16.540Z,101215.98
2019-02-26T10:39:47.325Z,101215.70
2019-02-26T10:42:14.359Z,101215.77
2019-02-26T10:44:42.802Z,101215.67
2019-02-26T10:47:10.703Z,101211.80
2019-02-26T10:49:49.659Z,101209.83
2019-02-26T10:52:19.410Z,101204.36
2019-02-26T10:54:48.075Z,101204.08
2019-02-26T10:57:15.860Z,101197.84
2019-02-26T10:59:44.984Z,101197.33
2019-02-26T11:02:14.599Z,101190.60
2019-02-26T11:04:44.013Z,101189.89
2019-02-26T11:07:14.289Z,101179.94
2019-02-26T11:09:44.689Z,101171.64
2019-02-26T11:12:11.877Z,101157.82
2019-02-26T11:14:41.783Z,101150.69
2019-02-26T11:17:09.319Z,101140.33
2019-02-26T11:19:41.213Z,101141.98
2019-02-26T11:22:06.865Z,101142.38
2019-02-26T11:24:36.199Z,101136.55
2019-02-26T11:27:04.280Z,101139.33
2019-02-26T11:29:33.845Z,101143.53
2019-02-26T11:32:04.236Z,101137.12
2019-02-26T11:34:33.513Z,101134.45
2019-02-26T11:37:03.362Z,101131.72
2019-02-26T11:39:30.943Z,101119.48
2019-02-26T11:42:03.985Z,101126.31
2019-02-26T11:44:31.802Z,101113.34
2019-02-26T11:46:59.643Z,101112.73
2019-02-26T11:49:27.442Z,101114.47
2019-02-26T11:51:55.245Z,101108.92
2019-02-26T11:54:23.007Z,101098.30
2019-02-26T11:56:52.526Z,101098.77
2019-02-26T11:59:20.535Z,101099.41
2019-02-26T12:01:48.439Z,101097.59
2019-02-26T12:04:17.018Z,101095.15
2019-02-26T12:06:44.955Z,101088.04
2019-02-26T12:09:14.193Z,101088.13
2019-02-26T12:11:42.600Z,101083.47
2019-02-26T12:14:10.974Z,101073.48
2019-02-26T12:16:40.785Z,101069.54
2019-02-26T12:19:10.786Z,101068.92
2019-02-26T12:21:38.516Z,101065.44
2019-02-26T12:24:08.886Z,101058.47
2019-02-26T12:26:35.959Z,101056.33
2019-02-26T12:29:04.430Z,101047.41
2019-02-26T12:31:34.514Z,101045.77
2019-02-26T12:34:02.025Z,101043.52
2019-02-26T12:36:32.532Z,101037.23
2019-02-26T12:39:02.318Z,101031.15
2019-02-26T12:41:41.844Z,101025.80
2019-02-26T12:44:11.435Z,101020.22
2019-02-26T12:46:38.937Z,101011.60
2019-02-26T12:49:09.422Z,101014.10
2019-02-26T12:51:36.514Z,101010.55
2019-02-26T12:54:06.327Z,101008.78
2019-02-26T12:56:37.352Z,101001.27
2019-02-26T12:59:06.788Z,101000.70
2019-02-26T13:01:36.035Z,100997.28
2019-02-26T13:04:03.298Z,100999.84
2019-02-26T13:06:31.107Z,100995.16
2019-02-26T13:08:58.906Z,100993.94
2019-02-26T13:11:26.771Z,100993.93
2019-02-26T13:13:54.600Z,100985.60
2019-02-26T13:16:22.407Z,100986.22
2019-02-26T13:18:51.565Z,100982.69
2019-02-26T13:21:19.915Z,100977.52
2019-02-26T13:23:47.698Z,100968.16
2019-02-26T13:26:19.570Z,100963.98
2019-02-26T13:28:46.637Z,100965.47
2019-02-26T13:31:18.204Z,100958.41
2019-02-26T13:33:44.642Z,100955.77
2019-02-26T13:36:12.611Z,100955.02
2019-02-26T13:38:44.764Z,100950.27
2019-02-26T13:41:29.495Z,100947.03
2019-02-26T13:43:48.949Z,100937.64
2019-02-26T13:46:16.858Z,100933.83
2019-02-26T13:48:44.685Z,100933.22
2019-02-26T13:51:12.463Z,100925.69
2019-02-26T13:53:40.315Z,100931.03
2019-02-26T13:56:08.314Z,100923.33
2019-02-26T13:58:36.069Z,100919.34
2019-02-26T14:01:05.374Z,100917.84
2019-02-26T14:03:33.207Z,100911.41
2019-02-26T14:06:00.977Z,100903.08
2019-02-26T14:08:28.781Z,100895.65
2019-02-26T14:10:56.577Z,100897.41
2019-02-26T14:13:24.408Z,100887.14
2019-02-26T14:15:52.310Z,100882.73
2019-02-26T14:18:20.103Z,100885.91
2019-02-26T14:20:47.938Z,100888.17
2019-02-26T14:23:15.750Z,100883.70
2019-02-26T14:25:43.801Z,100881.19
2019-02-26T14:28:11.608Z,100875.99
2019-02-26T14:30:39.355Z,100879.54
2019-02-26T14:33:07.176Z,100877.75
2019-02-26T14:35:35.000Z,100871.95
2019-02-26T14:38:03.354Z,100867.37
2019-02-26T14:40:31.194Z,100870.64
2019-02-26T14:42:59.018Z,100865.55
2019-02-26T14:45:26.959Z,100869.38
2019-02-26T14:47:54.749Z,100866.34
2019-02-26T14:50:33.143Z,100867.66
2019-02-26T14:53:01.204Z,100868.67
2019-02-26T14:55:30.230Z,100867.54
2019-02-26T14:57:58.124Z,100865.88
2019-02-26T15:00:26.721Z,100867.66
2019-02-26T15:02:54.694Z,100860.59
2019-02-26T15:05:22.597Z,100857.46
2019-02-26T15:07:50.386Z,100857.05
2019-02-26T15:10:28.322Z,100852.77
2019-02-26T15:12:56.395Z,100851.58
2019-02-26T15:15:24.225Z,100829.67
2019-02-26T15:17:52.024Z,100852.27
2019-02-26T15:20:19.947Z,100856.78
2019-02-26T15:22:47.759Z,100858.41
2019-02-26T15:25:19.998Z,100857.26
2019-02-26T15:27:47.806Z,100849.19
2019-02-26T15:30:16.035Z,100847.71
2019-02-26T15:32:44.045Z,100847.55
2019-02-26T15:35:12.256Z,100850.09
2019-02-26T15:37:40.628Z,100849.63
2019-02-26T15:40:09.874Z,100849.88
2019-02-26T15:42:37.717Z,100854.84
2019-02-26T15:45:12.859Z,100852.52
2019-02-26T15:47:40.647Z,100852.44
2019-02-26T15:50:10.688Z,100849.70
2019-02-26T15:52:38.467Z,100846.36
2019-02-26T15:55:09.580Z,100851.09
2019-02-26T15:57:37.441Z,100853.03
2019-02-26T16:00:07.256Z,100856.67
2019-02-26T16:02:36.796Z,100858.80
2019-02-26T16:05:05.080Z,100852.89
2019-02-26T16:07:32.849Z,100853.92
2019-02-26T16:10:00.646Z,100846.70
2019-02-26T16:12:28.415Z,100850.14
2019-02-26T16:14:56.203Z,100845.78
2019-02-26T16:17:23.957Z,100852.52
2019-02-26T16:19:51.771Z,100854.23
2019-02-26T16:22:19.514Z,100857.66
2019-02-26T16:24:47.284Z,100853.64
2019-02-26T16:27:15.509Z,100853.58
2019-02-26T16:29:43.993Z,100860.77
2019-02-26T16:32:11.739Z,100852.12
2019-02-26T16:34:39.469Z,100853.45
2019-02-26T16:37:07.937Z,100855.00
2019-02-26T16:39:35.919Z,100859.45
2019-02-26T16:42:03.694Z,100857.34
2019-02-26T16:44:31.517Z,100869.13
2019-02-26T16:46:59.313Z,100861.11
2019-02-26T16:49:27.880Z,100869.62
2019-02-26T16:52:00.973Z,100869.83
2019-02-26T16:54:29.142Z,100875.48
2019-02-26T16:56:56.877Z,100880.61
2019-02-26T16:59:24.622Z,100882.38
2019-02-26T17:01:54.821Z,100886.31
2019-02-26T17:04:22.241Z,100894.39
2019-02-26T17:06:51.545Z,100895.63
2019-02-26T17:09:21.104Z,100896.73
2019-02-26T17:11:49.617Z,100898.78
2019-02-26T17:14:17.981Z,100901.59
2019-02-26T17:16:46.367Z,100904.65
2019-02-26T17:19:15.549Z,100918.41
2019-02-26T17:21:44.148Z,100920.89
2019-02-26T17:24:12.548Z,100919.95
2019-02-26T17:26:40.870Z,100925.20
2019-02-26T17:29:09.183Z,100925.52
2019-02-26T17:31:37.310Z,100927.76
2019-02-26T17:34:05.507Z,100931.48
2019-02-26T17:36:35.397Z,100935.82
2019-02-26T17:39:06.324Z,100935.43
2019-02-26T17:41:35.194Z,100938.78
2019-02-26T17:44:03.910Z,100945.75
2019-02-26T17:46:32.305Z,100947.05
2019-02-26T17:49:02.639Z,100951.09
2019-02-26T17:51:31.169Z,100956.97
2019-02-26T17:54:01.955Z,100958.19
2019-02-26T17:56:49.294Z,100961.19
2019-02-26T17:59:17.404Z,100968.38
2019-02-26T18:01:45.424Z,100969.59
2019-02-26T18:04:13.765Z,100973.62
2019-02-26T18:06:41.589Z,100968.38
2019-02-26T18:09:09.594Z,100969.95
2019-02-26T18:11:42.661Z,100965.05
2019-02-26T18:14:11.065Z,100966.05
2019-02-26T18:16:38.892Z,100971.08
2019-02-26T18:19:07.008Z,100969.10
2019-02-26T18:21:43.226Z,100967.11
2019-02-26T18:24:20.090Z,100969.06
2019-02-26T18:26:52.907Z,100963.73
2019-02-26T18:29:25.295Z,100970.62
2019-02-26T18:32:03.286Z,100971.53
2019-02-26T18:34:31.700Z,100971.74
2019-02-26T18:36:59.580Z,100975.80
2019-02-26T18:39:27.382Z,100975.27
2019-02-26T18:41:55.974Z,100976.17
2019-02-26T18:44:24.321Z,100977.18
2019-02-26T18:46:52.381Z,100978.41
2019-02-26T18:49:22.482Z,100982.24
2019-02-26T18:51:50.651Z,100980.74
2019-02-26T18:54:20.330Z,100976.06
2019-02-26T18:56:53.995Z,100973.97
2019-02-26T18:59:24.581Z,100980.38
2019-02-26T19:01:53.407Z,100977.23
2019-02-26T19:04:22.405Z,100972.59
2019-02-26T19:06:50.642Z,100975.58
2019-02-26T19:09:18.599Z,100976.88
2019-02-26T19:11:51.717Z,100978.41
2019-02-26T19:14:19.504Z,100984.03
2019-02-26T19:17:06.739Z,100980.67
2019-02-26T19:19:34.550Z,100979.57
2019-02-26T19:22:12.563Z,100979.66
2019-02-26T19:24:40.400Z,100989.75
2019-02-26T19:27:08.214Z,100989.09
2019-02-26T19:29:35.997Z,100994.97
2019-02-26T19:32:03.730Z,100986.51
2019-02-26T19:34:31.851Z,100989.32
2019-02-26T19:36:59.696Z,100991.80
2019-02-26T19:39:33.513Z,100992.21
2019-02-26T19:42:00.450Z,100988.82
2019-02-26T19:44:28.266Z,100987.97
2019-02-26T19:46:56.121Z,100990.47
2019-02-26T19:49:23.974Z,100997.80
2019-02-26T19:51:51.882Z,101001.50
2019-02-26T19:54:19.740Z,101002.00
2019-02-26T19:56:47.630Z,101003.00
2019-02-26T19:59:15.423Z,101006.94
2019-02-26T20:01:43.854Z,101002.75
2019-02-26T20:04:13.401Z,101000.41
2019-02-26T20:06:41.213Z,101001.74
2019-02-26T20:09:09.405Z,101003.30
2019-02-26T20:11:37.172Z,101002.53
2019-02-26T20:14:05.130Z,101000.48
2019-02-26T20:16:32.903Z,101000.23
2019-02-26T20:19:00.815Z,100995.96
2019-02-26T20:21:28.640Z,100997.44
2019-02-26T20:23:56.439Z,101001.53
2019-02-26T20:26:24.260Z,100996.87
2019-02-26T20:28:52.026Z,100988.25
2019-02-26T20:31:21.882Z,100983.98
2019-02-26T20:33:51.846Z,100985.67
2019-02-26T20:36:19.709Z,100981.92
2019-02-26T20:38:47.545Z,100980.45
2019-02-26T20:41:15.337Z,100982.80
2019-02-26T20:43:43.436Z,100982.15
2019-02-26T20:46:11.417Z,100974.84
2019-02-26T20:48:39.394Z,100974.11
2019-02-26T20:51:07.465Z,100986.88
2019-02-26T20:53:36.563Z,100992.26
2019-02-26T20:56:05.444Z,100989.80
2019-02-26T20:58:33.281Z,100990.87
2019-02-26T21:01:01.280Z,100990.45
2019-02-26T21:03:29.125Z,100989.59
2019-02-26T21:05:56.972Z,100979.31
2019-02-26T21:08:24.816Z,100981.15
2019-02-26T21:11:02.795Z,100980.75
2019-02-26T21:13:34.629Z,100983.83
2019-02-26T21:16:00.328Z,100981.64
2019-02-26T21:18:30.702Z,100988.99
2019-02-26T21:21:11.574Z,100991.44
2019-02-26T21:23:39.054Z,100994.59
2019-02-26T21:26:08.197Z,100993.47
2019-02-26T21:28:35.987Z,100995.84
2019-02-26T21:31:03.896Z,100995.57
2019-02-26T21:33:31.733Z,100992.65
2019-02-26T21:35:59.495Z,100987.91
2019-02-26T21:38:27.307Z,100985.13
2019-02-26T21:40:55.113Z,100982.46
2019-02-26T21:43:22.923Z,100983.28
2019-02-26T21:45:50.755Z,100976.87
2019-02-26T21:48:18.546Z,100977.53
2019-02-26T21:51:06.858Z,100973.60
2019-02-26T21:53:34.710Z,100972.42
2019-02-26T21:56:02.556Z,100970.72
2019-02-26T21:58:30.312Z,100971.30
2019-02-26T22:00:58.254Z,100970.30
2019-02-26T22:03:26.070Z,100972.03
2019-02-26T22:05:53.860Z,100975.23
2019-02-26T22:08:24.555Z,100978.38
2019-02-26T22:10:51.474Z,100983.31
2019-02-26T22:13:19.339Z,100978.64
2019-02-26T22:15:47.159Z,100977.75
2019-02-26T22:18:14.966Z,100973.27
2019-02-26T22:20:47.817Z,100973.81
2019-02-26T22:23:15.594Z,100970.84
2019-02-26T22:25:43.395Z,100961.83
2019-02-26T22:28:11.193Z,100964.97
2019-02-26T22:30:39.114Z,100970.42
2019-02-26T22:33:08.964Z,100972.06
2019-02-26T22:35:36.773Z,100976.42
2019-02-26T22:38:04.587Z,100969.78
2019-02-26T22:40:34.220Z,100970.53
2019-02-26T22:43:02.263Z,100971.83
2019-02-26T22:45:30.111Z,100970.89
2019-02-26T22:47:57.837Z,100971.38
2019-02-26T22:50:27.211Z,100966.79
2019-02-26T22:52:55.506Z,100952.27
2019-02-26T22:55:23.315Z,100960.81
2019-02-26T22:57:51.102Z,100969.94
2019-02-26T23:00:58.770Z,100966.52
2019-02-26T23:03:26.622Z,100970.22
2019-02-26T23:05:58.787Z,100973.56
2019-02-26T23:08:24.153Z,100971.52
2019-02-26T23:10:55.030Z,100966.65
2019-02-26T23:13:22.038Z,100965.75
2019-02-26T23:15:50.742Z,100959.49
2019-02-26T23:18:20.042Z,100968.31
2019-02-26T23:20:53.022Z,100967.95
2019-02-26T23:23:21.862Z,100961.81
2019-02-26T23:25:50.471Z,100966.73
2019-02-26T23:28:21.709Z,100978.14
2019-02-26T23:30:48.455Z,100981.06
2019-02-26T23:33:16.359Z,100975.09
2019-02-26T23:35:44.159Z,100979.26
2019-02-26T23:38:11.985Z,100980.59
2019-02-26T23:40:50.271Z,100981.24
2019-02-26T23:43:18.090Z,100985.14
2019-02-26T23:45:45.889Z,100990.25
2019-02-26T23:48:13.822Z,100985.30
2019-02-26T23:50:41.568Z,100983.63
2019-02-26T23:53:09.388Z,100986.88
2019-02-26T23:55:37.239Z,100984.36
2019-02-26T23:58:05.131Z,100989.95
